Terminal Aerodrome Forecast
Issued by NWS Goodland, KS

Home | Current Version | Previous Version | Text Only | Print | Product List | Glossary On
Versions: 1 2 3 4 5 6 7 8 9 10 11 12 13 14 15 16 17 18 19 20 21 22
891
FTUS43 KGLD 140559 AAA
TAFGLD
TAF AMD
KGLD 140559Z 1406/1506 30013G21KT P6SM SKC WS020/33035KT
      TEMPO 1406/1408 6SM BR
     FM140800 32012G20KT P6SM SCT250
     FM141500 30010KT P6SM SCT250
     FM150000 25007KT P6SM BKN070=

USA.gov is the U.S. government's official web portal to all federal, state and local government web resources and services.